PAWN Airport Information

Runway Information
Runway 01 Length 4000 ft width 60 ft
Elevation 80 ft Threshold 0 ft Heading 22
Runway 19 Length 4000 ft Width 60 ft
Elevation 88 ft Threshold 0 ft Heading 202
Airport Frequencies
Type AWOS Name AWOS 3 Frequency 135.75 MHZ
Type CNTR Name ANCHORAGE Frequency 119.2 MHZ
Type FSS Name KOTZEBUE R Frequency 122.4 MHZ
Type UNIC Name CTAF/UNICO Frequency 122.8 MHZ
Airport Navaids
Type NDB-DME Name Noatak Frequency 414 KHZ
Airport Weather Information & NOTAM
ADDS - METARS form results

(0516 UTC 17 November 2018)
Data provider http://aviationweather.gov/metar/data/
 
METAR text: PAWN 170456Z AUTO 02004KT 10SM OVC090 M07/M12 A2981 RMK AO2 SLP111 T10671117 FZRANO
Conditions at: PAWN (NOATAK , AK, US) observed 0456 UTC 17 November 2018
Temperature: -6.7°C (20°F)
Dewpoint: -11.7°C (11°F) [RH = 68%]
Pressure (altimeter): 29.81 inches Hg (1009.6 mb)
[Sea-level pressure: 1011.1 mb]
Winds: from the NNE (20 degrees) at 5 MPH (4 knots; 2.1 m/s)
Visibility: 10 or more miles (16+ km)
Ceiling: 9000 feet AGL
Clouds: overcast cloud deck at 9000 feet AGL
Weather: automated observation with no human augmentation;
there may or may not be significant weather present at this time